sensor_id;sensor_type;location;lat;lon;timestamp;temperature;humidity
37658;DHT22;23500;53.268;8.308;2023-04-25T00:00:12;17.80;72.40
37658;DHT22;23500;53.268;8.308;2023-04-25T00:02:38;17.80;72.30
37658;DHT22;23500;53.268;8.308;2023-04-25T00:05:04;17.80;72.00
37658;DHT22;23500;53.268;8.308;2023-04-25T00:07:30;17.80;72.00
37658;DHT22;23500;53.268;8.308;2023-04-25T00:09:56;17.80;72.40
37658;DHT22;23500;53.268;8.308;2023-04-25T00:12:22;17.80;72.40
37658;DHT22;23500;53.268;8.308;2023-04-25T00:14:48;17.80;72.20
37658;DHT22;23500;53.268;8.308;2023-04-25T00:17:15;17.80;72.20
37658;DHT22;23500;53.268;8.308;2023-04-25T00:19:44;17.80;72.30
37658;DHT22;23500;53.268;8.308;2023-04-25T00:22:12;17.80;72.30
37658;DHT22;23500;53.268;8.308;2023-04-25T00:24:37;17.80;72.60
37658;DHT22;23500;53.268;8.308;2023-04-25T00:27:03;17.70;72.30
37658;DHT22;23500;53.268;8.308;2023-04-25T00:29:28;17.70;72.30
37658;DHT22;23500;53.268;8.308;2023-04-25T00:31:54;17.80;72.30
37658;DHT22;23500;53.268;8.308;2023-04-25T00:34:20;17.70;72.30
37658;DHT22;23500;53.268;8.308;2023-04-25T00:36:45;17.70;72.10
37658;DHT22;23500;53.268;8.308;2023-04-25T00:39:12;17.70;72.30
37658;DHT22;23500;53.268;8.308;2023-04-25T00:41:38;17.70;72.20
37658;DHT22;23500;53.268;8.308;2023-04-25T00:44:05;17.70;72.20
37658;DHT22;23500;53.268;8.308;2023-04-25T00:46:32;17.70;72.20
37658;DHT22;23500;53.268;8.308;2023-04-25T00:48:58;17.70;72.10
37658;DHT22;23500;53.268;8.308;2023-04-25T00:51:24;17.70;71.90
37658;DHT22;23500;53.268;8.308;2023-04-25T00:53:51;17.70;71.70
37658;DHT22;23500;53.268;8.308;2023-04-25T00:56:17;17.70;71.90
37658;DHT22;23500;53.268;8.308;2023-04-25T00:58:43;17.70;71.70
37658;DHT22;23500;53.268;8.308;2023-04-25T01:01:10;17.70;71.60
37658;DHT22;23500;53.268;8.308;2023-04-25T01:03:38;17.70;71.70
37658;DHT22;23500;53.268;8.308;2023-04-25T01:06:11;17.70;71.70
37658;DHT22;23500;53.268;8.308;2023-04-25T01:08:39;17.70;71.80
37658;DHT22;23500;53.268;8.308;2023-04-25T01:11:05;17.70;71.70
37658;DHT22;23500;53.268;8.308;2023-04-25T01:13:32;17.70;71.80
37658;DHT22;23500;53.268;8.308;2023-04-25T01:15:59;17.70;71.50
37658;DHT22;23500;53.268;8.308;2023-04-25T01:18:25;17.70;71.60
37658;DHT22;23500;53.268;8.308;2023-04-25T01:20:52;17.60;71.30
37658;DHT22;23500;53.268;8.308;2023-04-25T01:23:21;17.60;71.20
37658;DHT22;23500;53.268;8.308;2023-04-25T01:25:48;17.60;71.50
37658;DHT22;23500;53.268;8.308;2023-04-25T01:28:14;17.60;71.60
37658;DHT22;23500;53.268;8.308;2023-04-25T01:30:41;17.60;72.00
37658;DHT22;23500;53.268;8.308;2023-04-25T01:33:08;17.60;72.20
37658;DHT22;23500;53.268;8.308;2023-04-25T01:35:34;17.60;72.50
37658;DHT22;23500;53.268;8.308;2023-04-25T01:38:00;17.60;72.50
37658;DHT22;23500;53.268;8.308;2023-04-25T01:40:27;17.60;72.50
37658;DHT22;23500;53.268;8.308;2023-04-25T01:42:54;17.60;72.60
37658;DHT22;23500;53.268;8.308;2023-04-25T01:45:20;17.60;72.70
37658;DHT22;23500;53.268;8.308;2023-04-25T01:47:46;17.60;72.60
37658;DHT22;23500;53.268;8.308;2023-04-25T01:50:17;17.60;72.40
37658;DHT22;23500;53.268;8.308;2023-04-25T01:52:43;17.60;72.30
37658;DHT22;23500;53.268;8.308;2023-04-25T01:55:09;17.60;72.20
37658;DHT22;23500;53.268;8.308;2023-04-25T01:57:35;17.60;72.40
37658;DHT22;23500;53.268;8.308;2023-04-25T02:00:03;17.60;72.60
37658;DHT22;23500;53.268;8.308;2023-04-25T02:02:29;17.50;72.60
37658;DHT22;23500;53.268;8.308;2023-04-25T02:04:54;17.50;72.60
37658;DHT22;23500;53.268;8.308;2023-04-25T02:07:21;17.50;72.60
37658;DHT22;23500;53.268;8.308;2023-04-25T02:09:47;17.50;72.70
37658;DHT22;23500;53.268;8.308;2023-04-25T02:12:12;17.50;72.60
37658;DHT22;23500;53.268;8.308;2023-04-25T02:14:38;17.50;72.70
37658;DHT22;23500;53.268;8.308;2023-04-25T02:17:04;17.50;72.80
37658;DHT22;23500;53.268;8.308;2023-04-25T02:19:29;17.50;72.90
37658;DHT22;23500;53.268;8.308;2023-04-25T02:21:55;17.50;73.00
37658;DHT22;23500;53.268;8.308;2023-04-25T02:24:22;17.50;72.90
37658;DHT22;23500;53.268;8.308;2023-04-25T02:26:48;17.50;73.10
37658;DHT22;23500;53.268;8.308;2023-04-25T02:29:15;17.50;73.10
37658;DHT22;23500;53.268;8.308;2023-04-25T02:31:41;17.50;73.10
37658;DHT22;23500;53.268;8.308;2023-04-25T02:34:06;17.50;73.10
37658;DHT22;23500;53.268;8.308;2023-04-25T02:36:32;17.50;73.20
37658;DHT22;23500;53.268;8.308;2023-04-25T02:39:00;17.50;73.20
37658;DHT22;23500;53.268;8.308;2023-04-25T02:41:26;17.50;73.20
37658;DHT22;23500;53.268;8.308;2023-04-25T02:43:52;17.50;73.20
37658;DHT22;23500;53.268;8.308;2023-04-25T02:46:17;17.50;73.20
37658;DHT22;23500;53.268;8.308;2023-04-25T02:48:43;17.50;73.40
37658;DHT22;23500;53.268;8.308;2023-04-25T02:51:09;17.50;73.10
37658;DHT22;23500;53.268;8.308;2023-04-25T02:53:35;17.50;73.10
37658;DHT22;23500;53.268;8.308;2023-04-25T02:56:01;17.50;73.00
37658;DHT22;23500;53.268;8.308;2023-04-25T02:58:26;17.40;72.50
37658;DHT22;23500;53.268;8.308;2023-04-25T03:00:52;17.40;72.50
37658;DHT22;23500;53.268;8.308;2023-04-25T03:03:18;17.40;72.50
37658;DHT22;23500;53.268;8.308;2023-04-25T03:05:50;17.40;72.50
37658;DHT22;23500;53.268;8.308;2023-04-25T03:08:16;17.40;72.50
37658;DHT22;23500;53.268;8.308;2023-04-25T03:10:43;17.40;72.50
37658;DHT22;23500;53.268;8.308;2023-04-25T03:13:09;17.40;72.50
37658;DHT22;23500;53.268;8.308;2023-04-25T03:15:35;17.40;72.30
37658;DHT22;23500;53.268;8.308;2023-04-25T03:18:01;17.40;72.70
37658;DHT22;23500;53.268;8.308;2023-04-25T03:20:27;17.40;72.90
37658;DHT22;23500;53.268;8.308;2023-04-25T03:22:53;17.40;73.10
37658;DHT22;23500;53.268;8.308;2023-04-25T03:25:19;17.40;72.70
37658;DHT22;23500;53.268;8.308;2023-04-25T03:27:45;17.40;72.80
37658;DHT22;23500;53.268;8.308;2023-04-25T03:30:10;17.40;72.90
37658;DHT22;23500;53.268;8.308;2023-04-25T03:32:37;17.40;72.90
37658;DHT22;23500;53.268;8.308;2023-04-25T03:35:02;17.40;73.40
37658;DHT22;23500;53.268;8.308;2023-04-25T03:37:28;17.40;72.90
37658;DHT22;23500;53.268;8.308;2023-04-25T03:39:54;17.40;73.20
37658;DHT22;23500;53.268;8.308;2023-04-25T03:42:20;17.30;73.10
37658;DHT22;23500;53.268;8.308;2023-04-25T03:44:48;17.30;73.20
37658;DHT22;23500;53.268;8.308;2023-04-25T03:47:14;17.30;73.90
37658;DHT22;23500;53.268;8.308;2023-04-25T03:49:40;17.30;73.20
37658;DHT22;23500;53.268;8.308;2023-04-25T03:52:06;17.30;73.20
37658;DHT22;23500;53.268;8.308;2023-04-25T03:54:32;17.30;73.20
37658;DHT22;23500;53.268;8.308;2023-04-25T03:56:58;17.30;73.00
37658;DHT22;23500;53.268;8.308;2023-04-25T03:59:23;17.40;72.70
37658;DHT22;23500;53.268;8.308;2023-04-25T04:01:50;17.40;72.90
37658;DHT22;23500;53.268;8.308;2023-04-25T04:04:15;17.40;72.50
37658;DHT22;23500;53.268;8.308;2023-04-25T04:06:41;17.40;72.90
37658;DHT22;23500;53.268;8.308;2023-04-25T04:09:07;17.40;72.70
37658;DHT22;23500;53.268;8.308;2023-04-25T04:11:36;17.40;72.60
37658;DHT22;23500;53.268;8.308;2023-04-25T04:14:07;17.40;72.50
37658;DHT22;23500;53.268;8.308;2023-04-25T04:16:33;17.40;72.40
37658;DHT22;23500;53.268;8.308;2023-04-25T04:18:58;17.40;72.20
37658;DHT22;23500;53.268;8.308;2023-04-25T04:21:24;17.40;72.50
37658;DHT22;23500;53.268;8.308;2023-04-25T04:23:52;17.40;72.70
37658;DHT22;23500;53.268;8.308;2023-04-25T04:26:20;17.40;72.70
37658;DHT22;23500;53.268;8.308;2023-04-25T04:28:49;17.40;72.90
37658;DHT22;23500;53.268;8.308;2023-04-25T04:31:20;17.40;72.90
37658;DHT22;23500;53.268;8.308;2023-04-25T04:33:47;17.40;73.00
37658;DHT22;23500;53.268;8.308;2023-04-25T04:36:12;17.40;73.00
37658;DHT22;23500;53.268;8.308;2023-04-25T04:38:38;17.50;73.10
37658;DHT22;23500;53.268;8.308;2023-04-25T04:41:05;17.50;73.20
37658;DHT22;23500;53.268;8.308;2023-04-25T04:43:31;17.50;73.20
37658;DHT22;23500;53.268;8.308;2023-04-25T04:46:02;17.50;73.20
37658;DHT22;23500;53.268;8.308;2023-04-25T04:48:28;17.50;73.10
37658;DHT22;23500;53.268;8.308;2023-04-25T04:50:54;17.50;73.10
37658;DHT22;23500;53.268;8.308;2023-04-25T04:53:20;17.50;73.10
37658;DHT22;23500;53.268;8.308;2023-04-25T04:55:45;17.60;73.30
37658;DHT22;23500;53.268;8.308;2023-04-25T04:58:11;17.60;73.30
37658;DHT22;23500;53.268;8.308;2023-04-25T05:00:37;17.60;73.20
37658;DHT22;23500;53.268;8.308;2023-04-25T05:03:03;17.60;73.10
37658;DHT22;23500;53.268;8.308;2023-04-25T05:05:30;17.70;72.90
37658;DHT22;23500;53.268;8.308;2023-04-25T05:07:56;17.70;72.80
37658;DHT22;23500;53.268;8.308;2023-04-25T05:10:22;17.70;72.60
37658;DHT22;23500;53.268;8.308;2023-04-25T05:12:47;17.80;72.50
37658;DHT22;23500;53.268;8.308;2023-04-25T05:15:14;17.80;72.20
37658;DHT22;23500;53.268;8.308;2023-04-25T05:17:39;17.80;72.10
37658;DHT22;23500;53.268;8.308;2023-04-25T05:20:06;17.80;71.80
37658;DHT22;23500;53.268;8.308;2023-04-25T05:22:34;18.00;71.60
37658;DHT22;23500;53.268;8.308;2023-04-25T05:24:59;18.20;71.00
37658;DHT22;23500;53.268;8.308;2023-04-25T05:27:25;18.40;70.60
37658;DHT22;23500;53.268;8.308;2023-04-25T05:29:51;18.60;70.20
37658;DHT22;23500;53.268;8.308;2023-04-25T05:32:18;18.80;69.40
37658;DHT22;23500;53.268;8.308;2023-04-25T05:34:43;19.00;68.60
37658;DHT22;23500;53.268;8.308;2023-04-25T05:37:09;19.20;67.50
37658;DHT22;23500;53.268;8.308;2023-04-25T05:39:35;19.40;67.30
37658;DHT22;23500;53.268;8.308;2023-04-25T05:42:01;19.50;67.00
37658;DHT22;23500;53.268;8.308;2023-04-25T05:44:27;19.60;66.60
37658;DHT22;23500;53.268;8.308;2023-04-25T05:46:53;19.70;66.20
37658;DHT22;23500;53.268;8.308;2023-04-25T05:49:19;19.50;66.20
37658;DHT22;23500;53.268;8.308;2023-04-25T05:51:44;19.40;66.70
37658;DHT22;23500;53.268;8.308;2023-04-25T05:54:10;19.30;67.10
37658;DHT22;23500;53.268;8.308;2023-04-25T05:56:36;19.40;67.30
37658;DHT22;23500;53.268;8.308;2023-04-25T05:59:01;19.50;66.90
37658;DHT22;23500;53.268;8.308;2023-04-25T06:01:27;19.60;66.10
37658;DHT22;23500;53.268;8.308;2023-04-25T06:03:53;19.50;65.70
37658;DHT22;23500;53.268;8.308;2023-04-25T06:06:18;19.50;65.60
37658;DHT22;23500;53.268;8.308;2023-04-25T06:08:44;19.40;65.50
37658;DHT22;23500;53.268;8.308;2023-04-25T06:11:10;19.30;65.50
37658;DHT22;23500;53.268;8.308;2023-04-25T06:13:36;19.30;65.60
37658;DHT22;23500;53.268;8.308;2023-04-25T06:16:02;19.20;65.80
37658;DHT22;23500;53.268;8.308;2023-04-25T06:18:27;19.10;66.00
37658;DHT22;23500;53.268;8.308;2023-04-25T06:20:53;19.00;66.10
37658;DHT22;23500;53.268;8.308;2023-04-25T06:23:19;18.90;66.30
37658;DHT22;23500;53.268;8.308;2023-04-25T06:25:44;18.90;67.20
37658;DHT22;23500;53.268;8.308;2023-04-25T06:28:10;18.80;66.50
37658;DHT22;23500;53.268;8.308;2023-04-25T06:30:36;18.80;66.70
37658;DHT22;23500;53.268;8.308;2023-04-25T06:33:01;18.80;66.80
37658;DHT22;23500;53.268;8.308;2023-04-25T06:35:27;18.80;66.80
37658;DHT22;23500;53.268;8.308;2023-04-25T06:37:53;18.80;66.80
37658;DHT22;23500;53.268;8.308;2023-04-25T06:40:18;18.80;66.80
37658;DHT22;23500;53.268;8.308;2023-04-25T06:42:44;18.80;66.80
37658;DHT22;23500;53.268;8.308;2023-04-25T06:45:10;18.80;66.80
37658;DHT22;23500;53.268;8.308;2023-04-25T06:47:35;18.80;66.80
37658;DHT22;23500;53.268;8.308;2023-04-25T06:50:01;18.90;66.80
37658;DHT22;23500;53.268;8.308;2023-04-25T06:52:27;19.00;66.90
37658;DHT22;23500;53.268;8.308;2023-04-25T06:54:53;19.20;66.40
37658;DHT22;23500;53.268;8.308;2023-04-25T06:57:18;19.40;65.90
37658;DHT22;23500;53.268;8.308;2023-04-25T06:59:44;19.60;65.50
37658;DHT22;23500;53.268;8.308;2023-04-25T07:02:10;19.80;65.00
37658;DHT22;23500;53.268;8.308;2023-04-25T07:04:35;19.90;64.50
37658;DHT22;23500;53.268;8.308;2023-04-25T07:07:01;20.10;64.00
37658;DHT22;23500;53.268;8.308;2023-04-25T07:09:28;20.20;63.70
37658;DHT22;23500;53.268;8.308;2023-04-25T07:11:55;20.30;63.20
37658;DHT22;23500;53.268;8.308;2023-04-25T07:14:21;20.40;62.90
37658;DHT22;23500;53.268;8.308;2023-04-25T07:16:47;20.50;62.60
37658;DHT22;23500;53.268;8.308;2023-04-25T07:19:13;20.60;62.20
37658;DHT22;23500;53.268;8.308;2023-04-25T07:21:38;20.60;61.90
37658;DHT22;23500;53.268;8.308;2023-04-25T07:24:05;20.60;61.80
37658;DHT22;23500;53.268;8.308;2023-04-25T07:26:30;20.60;61.90
37658;DHT22;23500;53.268;8.308;2023-04-25T07:28:56;20.40;62.10
37658;DHT22;23500;53.268;8.308;2023-04-25T07:31:22;20.20;62.50
37658;DHT22;23500;53.268;8.308;2023-04-25T07:33:48;20.10;62.90
37658;DHT22;23500;53.268;8.308;2023-04-25T07:36:13;19.90;63.20
37658;DHT22;23500;53.268;8.308;2023-04-25T07:38:40;19.80;63.50
37658;DHT22;23500;53.268;8.308;2023-04-25T07:41:06;19.70;63.30
37658;DHT22;23500;53.268;8.308;2023-04-25T07:43:31;19.70;63.40
37658;DHT22;23500;53.268;8.308;2023-04-25T07:45:57;19.70;63.40
37658;DHT22;23500;53.268;8.308;2023-04-25T07:48:23;19.70;63.60
37658;DHT22;23500;53.268;8.308;2023-04-25T07:50:49;19.60;63.80
37658;DHT22;23500;53.268;8.308;2023-04-25T07:53:15;19.60;64.00
37658;DHT22;23500;53.268;8.308;2023-04-25T07:55:41;19.50;64.10
37658;DHT22;23500;53.268;8.308;2023-04-25T07:58:07;19.50;64.20
37658;DHT22;23500;53.268;8.308;2023-04-25T08:00:33;19.50;64.20
37658;DHT22;23500;53.268;8.308;2023-04-25T08:02:59;19.50;64.20
37658;DHT22;23500;53.268;8.308;2023-04-25T08:05:24;19.50;64.20
37658;DHT22;23500;53.268;8.308;2023-04-25T08:07:50;19.50;64.20
37658;DHT22;23500;53.268;8.308;2023-04-25T08:10:16;19.50;64.30
37658;DHT22;23500;53.268;8.308;2023-04-25T08:12:42;19.50;64.30
37658;DHT22;23500;53.268;8.308;2023-04-25T08:15:08;19.50;64.30
37658;DHT22;23500;53.268;8.308;2023-04-25T08:17:33;19.50;64.30
37658;DHT22;23500;53.268;8.308;2023-04-25T08:19:59;19.50;64.30
37658;DHT22;23500;53.268;8.308;2023-04-25T08:22:25;19.60;64.30
37658;DHT22;23500;53.268;8.308;2023-04-25T08:24:51;19.70;64.00
37658;DHT22;23500;53.268;8.308;2023-04-25T08:27:20;19.80;63.80
37658;DHT22;23500;53.268;8.308;2023-04-25T08:29:46;19.90;63.60
37658;DHT22;23500;53.268;8.308;2023-04-25T08:32:12;19.90;63.30
37658;DHT22;23500;53.268;8.308;2023-04-25T08:34:37;20.00;63.10
37658;DHT22;23500;53.268;8.308;2023-04-25T08:37:07;20.00;62.70
37658;DHT22;23500;53.268;8.308;2023-04-25T08:39:37;20.00;62.60
37658;DHT22;23500;53.268;8.308;2023-04-25T08:42:06;20.00;62.50
37658;DHT22;23500;53.268;8.308;2023-04-25T08:44:35;20.00;62.60
37658;DHT22;23500;53.268;8.308;2023-04-25T08:47:05;19.90;62.60
37658;DHT22;23500;53.268;8.308;2023-04-25T08:49:32;19.80;62.80
37658;DHT22;23500;53.268;8.308;2023-04-25T08:52:03;19.70;63.00
37658;DHT22;23500;53.268;8.308;2023-04-25T08:54:31;19.70;63.10
37658;DHT22;23500;53.268;8.308;2023-04-25T08:57:00;19.60;63.20
37658;DHT22;23500;53.268;8.308;2023-04-25T08:59:27;19.60;63.20
37658;DHT22;23500;53.268;8.308;2023-04-25T09:01:53;19.60;63.20
37658;DHT22;23500;53.268;8.308;2023-04-25T09:04:19;19.70;63.00
37658;DHT22;23500;53.268;8.308;2023-04-25T09:06:46;19.70;62.80
37658;DHT22;23500;53.268;8.308;2023-04-25T09:09:12;19.70;62.40
37658;DHT22;23500;53.268;8.308;2023-04-25T09:11:38;19.80;62.80
37658;DHT22;23500;53.268;8.308;2023-04-25T09:14:14;19.70;62.50
37658;DHT22;23500;53.268;8.308;2023-04-25T09:19:28;19.60;62.90
37658;DHT22;23500;53.268;8.308;2023-04-25T09:21:54;19.60;63.90
37658;DHT22;23500;53.268;8.308;2023-04-25T09:24:42;19.60;63.10
37658;DHT22;23500;53.268;8.308;2023-04-25T09:27:11;19.70;63.20
37658;DHT22;23500;53.268;8.308;2023-04-25T09:29:40;19.70;63.10
37658;DHT22;23500;53.268;8.308;2023-04-25T09:32:14;19.70;63.10
37658;DHT22;23500;53.268;8.308;2023-04-25T09:34:41;19.70;63.10
37658;DHT22;23500;53.268;8.308;2023-04-25T09:37:11;19.70;63.10
37658;DHT22;23500;53.268;8.308;2023-04-25T09:39:38;19.70;63.10
37658;DHT22;23500;53.268;8.308;2023-04-25T09:42:04;19.70;63.10
37658;DHT22;23500;53.268;8.308;2023-04-25T09:44:31;19.70;63.20
37658;DHT22;23500;53.268;8.308;2023-04-25T09:46:56;19.70;63.20
37658;DHT22;23500;53.268;8.308;2023-04-25T09:49:23;19.70;63.20
37658;DHT22;23500;53.268;8.308;2023-04-25T09:51:58;19.70;63.20
37658;DHT22;23500;53.268;8.308;2023-04-25T09:54:24;19.70;63.10
37658;DHT22;23500;53.268;8.308;2023-04-25T09:56:52;19.80;62.50
37658;DHT22;23500;53.268;8.308;2023-04-25T09:59:20;19.80;60.70
37658;DHT22;23500;53.268;8.308;2023-04-25T10:01:48;19.80;60.10
37658;DHT22;23500;53.268;8.308;2023-04-25T10:04:22;19.80;59.70
37658;DHT22;23500;53.268;8.308;2023-04-25T10:06:50;19.80;59.50
37658;DHT22;23500;53.268;8.308;2023-04-25T10:09:20;19.80;60.00
37658;DHT22;23500;53.268;8.308;2023-04-25T10:11:47;19.80;59.30
37658;DHT22;23500;53.268;8.308;2023-04-25T10:14:17;19.80;59.30
37658;DHT22;23500;53.268;8.308;2023-04-25T10:16:44;19.80;59.40
37658;DHT22;23500;53.268;8.308;2023-04-25T10:19:10;19.80;59.60
37658;DHT22;23500;53.268;8.308;2023-04-25T10:21:41;19.80;59.70
37658;DHT22;23500;53.268;8.308;2023-04-25T10:24:11;19.80;59.70
37658;DHT22;23500;53.268;8.308;2023-04-25T10:26:37;19.80;59.60
37658;DHT22;23500;53.268;8.308;2023-04-25T10:29:04;19.90;59.50
37658;DHT22;23500;53.268;8.308;2023-04-25T10:31:30;19.90;59.40
37658;DHT22;23500;53.268;8.308;2023-04-25T10:33:56;19.90;59.50
37658;DHT22;23500;53.268;8.308;2023-04-25T10:36:23;19.80;59.70
37658;DHT22;23500;53.268;8.308;2023-04-25T10:38:52;19.70;59.50
37658;DHT22;23500;53.268;8.308;2023-04-25T10:41:20;19.70;59.70
37658;DHT22;23500;53.268;8.308;2023-04-25T10:43:47;19.60;59.80
37658;DHT22;23500;53.268;8.308;2023-04-25T10:46:24;19.50;60.30
37658;DHT22;23500;53.268;8.308;2023-04-25T10:48:54;19.40;61.00
37658;DHT22;23500;53.268;8.308;2023-04-25T10:56:22;19.40;61.10
37658;DHT22;23500;53.268;8.308;2023-04-25T10:58:48;19.40;61.20
37658;DHT22;23500;53.268;8.308;2023-04-25T11:01:19;19.40;61.30
37658;DHT22;23500;53.268;8.308;2023-04-25T11:03:44;19.50;61.20
37658;DHT22;23500;53.268;8.308;2023-04-25T11:06:28;19.50;61.00
37658;DHT22;23500;53.268;8.308;2023-04-25T11:08:55;19.50;61.00
37658;DHT22;23500;53.268;8.308;2023-04-25T11:11:20;19.50;61.40
37658;DHT22;23500;53.268;8.308;2023-04-25T11:13:49;19.50;61.10
37658;DHT22;23500;53.268;8.308;2023-04-25T11:16:16;19.50;61.40
37658;DHT22;23500;53.268;8.308;2023-04-25T11:18:43;19.50;61.30
37658;DHT22;23500;53.268;8.308;2023-04-25T11:21:09;19.50;61.10
37658;DHT22;23500;53.268;8.308;2023-04-25T11:23:35;19.50;61.20
37658;DHT22;23500;53.268;8.308;2023-04-25T11:26:02;19.40;61.50
37658;DHT22;23500;53.268;8.308;2023-04-25T11:28:28;19.40;62.10
37658;DHT22;23500;53.268;8.308;2023-04-25T11:30:54;19.30;62.50
37658;DHT22;23500;53.268;8.308;2023-04-25T11:33:24;19.30;62.70
37658;DHT22;23500;53.268;8.308;2023-04-25T11:35:52;19.20;62.80
37658;DHT22;23500;53.268;8.308;2023-04-25T11:38:18;19.30;62.90
37658;DHT22;23500;53.268;8.308;2023-04-25T11:40:43;19.30;62.90
37658;DHT22;23500;53.268;8.308;2023-04-25T11:43:09;19.30;62.90
37658;DHT22;23500;53.268;8.308;2023-04-25T11:45:36;19.30;62.80
37658;DHT22;23500;53.268;8.308;2023-04-25T11:48:02;19.30;62.80
37658;DHT22;23500;53.268;8.308;2023-04-25T11:50:29;19.40;63.30
37658;DHT22;23500;53.268;8.308;2023-04-25T11:52:56;19.40;62.70
37658;DHT22;23500;53.268;8.308;2023-04-25T11:55:22;19.40;62.70
37658;DHT22;23500;53.268;8.308;2023-04-25T11:57:49;19.40;62.60
37658;DHT22;23500;53.268;8.308;2023-04-25T12:00:21;19.40;62.80
37658;DHT22;23500;53.268;8.308;2023-04-25T12:02:52;19.50;62.90
37658;DHT22;23500;53.268;8.308;2023-04-25T12:05:18;19.50;62.90
37658;DHT22;23500;53.268;8.308;2023-04-25T12:07:46;19.50;62.70
37658;DHT22;23500;53.268;8.308;2023-04-25T12:10:13;19.60;62.60
37658;DHT22;23500;53.268;8.308;2023-04-25T12:12:44;19.70;62.50
37658;DHT22;23500;53.268;8.308;2023-04-25T12:15:15;19.70;62.40
37658;DHT22;23500;53.268;8.308;2023-04-25T12:17:48;19.60;62.50
37658;DHT22;23500;53.268;8.308;2023-04-25T12:20:19;19.50;62.70
37658;DHT22;23500;53.268;8.308;2023-04-25T12:22:47;19.50;62.60
37658;DHT22;23500;53.268;8.308;2023-04-25T12:25:34;19.40;63.00
37658;DHT22;23500;53.268;8.308;2023-04-25T12:28:23;19.40;63.00
37658;DHT22;23500;53.268;8.308;2023-04-25T12:33:25;19.40;62.80
37658;DHT22;23500;53.268;8.308;2023-04-25T12:35:52;19.40;62.80
37658;DHT22;23500;53.268;8.308;2023-04-25T12:38:29;19.40;63.00
37658;DHT22;23500;53.268;8.308;2023-04-25T12:40:56;19.40;63.20
37658;DHT22;23500;53.268;8.308;2023-04-25T12:43:22;19.40;63.40
37658;DHT22;23500;53.268;8.308;2023-04-25T12:45:49;19.40;63.40
37658;DHT22;23500;53.268;8.308;2023-04-25T12:48:15;19.40;63.40
37658;DHT22;23500;53.268;8.308;2023-04-25T12:50:41;19.50;63.40
37658;DHT22;23500;53.268;8.308;2023-04-25T12:53:07;19.50;63.30
37658;DHT22;23500;53.268;8.308;2023-04-25T12:55:33;19.50;63.20
37658;DHT22;23500;53.268;8.308;2023-04-25T12:57:59;19.50;63.30
37658;DHT22;23500;53.268;8.308;2023-04-25T13:00:24;19.50;63.20
37658;DHT22;23500;53.268;8.308;2023-04-25T13:02:51;19.50;63.00
37658;DHT22;23500;53.268;8.308;2023-04-25T13:05:17;19.50;62.90
37658;DHT22;23500;53.268;8.308;2023-04-25T13:07:43;19.50;62.80
37658;DHT22;23500;53.268;8.308;2023-04-25T13:10:09;19.60;62.70
37658;DHT22;23500;53.268;8.308;2023-04-25T13:12:34;19.70;62.30
37658;DHT22;23500;53.268;8.308;2023-04-25T13:15:00;19.70;61.80
37658;DHT22;23500;53.268;8.308;2023-04-25T13:17:26;19.70;61.90
37658;DHT22;23500;53.268;8.308;2023-04-25T13:19:51;19.70;61.90
37658;DHT22;23500;53.268;8.308;2023-04-25T13:22:20;19.70;61.90
37658;DHT22;23500;53.268;8.308;2023-04-25T13:24:46;19.70;61.70
37658;DHT22;23500;53.268;8.308;2023-04-25T13:27:12;19.70;61.90
37658;DHT22;23500;53.268;8.308;2023-04-25T13:29:38;19.70;62.00
37658;DHT22;23500;53.268;8.308;2023-04-25T13:32:06;19.70;61.80
37658;DHT22;23500;53.268;8.308;2023-04-25T13:34:32;19.70;61.70
37658;DHT22;23500;53.268;8.308;2023-04-25T13:36:58;19.70;61.90
37658;DHT22;23500;53.268;8.308;2023-04-25T13:39:24;19.60;61.80
37658;DHT22;23500;53.268;8.308;2023-04-25T13:41:50;19.60;61.50
37658;DHT22;23500;53.268;8.308;2023-04-25T13:44:16;19.50;62.40
37658;DHT22;23500;53.268;8.308;2023-04-25T13:49:07;19.60;62.50
37658;DHT22;23500;53.268;8.308;2023-04-25T13:51:33;19.60;63.90
37658;DHT22;23500;53.268;8.308;2023-04-25T13:53:59;19.60;64.10
37658;DHT22;23500;53.268;8.308;2023-04-25T13:56:25;19.50;64.20
37658;DHT22;23500;53.268;8.308;2023-04-25T13:58:50;19.50;64.00
37658;DHT22;23500;53.268;8.308;2023-04-25T14:01:17;19.50;63.90
37658;DHT22;23500;53.268;8.308;2023-04-25T14:03:43;19.50;63.60
37658;DHT22;23500;53.268;8.308;2023-04-25T14:06:09;19.50;63.30
37658;DHT22;23500;53.268;8.308;2023-04-25T14:08:35;19.60;62.60
37658;DHT22;23500;53.268;8.308;2023-04-25T14:11:00;19.60;62.10
37658;DHT22;23500;53.268;8.308;2023-04-25T14:13:26;19.60;61.80
37658;DHT22;23500;53.268;8.308;2023-04-25T14:15:52;19.60;61.70
37658;DHT22;23500;53.268;8.308;2023-04-25T14:18:18;19.50;61.80
37658;DHT22;23500;53.268;8.308;2023-04-25T14:20:44;19.50;61.90
37658;DHT22;23500;53.268;8.308;2023-04-25T14:23:10;19.50;62.10
37658;DHT22;23500;53.268;8.308;2023-04-25T14:25:36;19.50;62.20
37658;DHT22;23500;53.268;8.308;2023-04-25T14:28:02;19.50;62.20
37658;DHT22;23500;53.268;8.308;2023-04-25T14:30:28;19.50;62.10
37658;DHT22;23500;53.268;8.308;2023-04-25T14:32:53;19.50;62.90
37658;DHT22;23500;53.268;8.308;2023-04-25T14:35:19;19.50;62.20
37658;DHT22;23500;53.268;8.308;2023-04-25T14:37:45;19.50;62.20
37658;DHT22;23500;53.268;8.308;2023-04-25T14:40:11;19.50;62.30
37658;DHT22;23500;53.268;8.308;2023-04-25T14:42:39;19.50;62.20
37658;DHT22;23500;53.268;8.308;2023-04-25T14:45:06;19.50;62.40
37658;DHT22;23500;53.268;8.308;2023-04-25T14:47:36;19.50;62.30
37658;DHT22;23500;53.268;8.308;2023-04-25T14:50:02;19.50;62.40
37658;DHT22;23500;53.268;8.308;2023-04-25T14:52:28;19.50;62.50
37658;DHT22;23500;53.268;8.308;2023-04-25T14:54:54;19.40;62.60
37658;DHT22;23500;53.268;8.308;2023-04-25T14:57:20;19.40;62.80
37658;DHT22;23500;53.268;8.308;2023-04-25T14:59:45;19.40;63.00
37658;DHT22;23500;53.268;8.308;2023-04-25T15:02:11;19.30;63.00
37658;DHT22;23500;53.268;8.308;2023-04-25T15:04:37;19.30;63.20
37658;DHT22;23500;53.268;8.308;2023-04-25T15:07:03;19.30;63.20
37658;DHT22;23500;53.268;8.308;2023-04-25T15:09:29;19.30;63.20
37658;DHT22;23500;53.268;8.308;2023-04-25T15:11:55;19.30;63.30
37658;DHT22;23500;53.268;8.308;2023-04-25T15:14:21;19.30;63.30
37658;DHT22;23500;53.268;8.308;2023-04-25T15:16:46;19.30;63.30
37658;DHT22;23500;53.268;8.308;2023-04-25T15:19:12;19.30;63.10
37658;DHT22;23500;53.268;8.308;2023-04-25T15:21:38;19.40;63.10
37658;DHT22;23500;53.268;8.308;2023-04-25T15:24:03;19.30;63.10
37658;DHT22;23500;53.268;8.308;2023-04-25T15:26:29;19.30;63.30
37658;DHT22;23500;53.268;8.308;2023-04-25T15:28:55;19.20;63.50
37658;DHT22;23500;53.268;8.308;2023-04-25T15:31:22;19.10;63.70
37658;DHT22;23500;53.268;8.308;2023-04-25T15:33:47;19.10;64.00
37658;DHT22;23500;53.268;8.308;2023-04-25T15:36:13;19.10;64.00
37658;DHT22;23500;53.268;8.308;2023-04-25T15:38:41;19.00;64.20